Time;durP1;ratioP1;P1;durP2;ratioP2;P2;SDS_P1;SDS_P2;PMS_P1;PMS_P2;Temp;Humidity;BMP_temperature;BMP_pressure;BME280_temperature;BME280_humidity;BME280_pressure;Samples;Min_cycle;Max_cycle;Signal;HPM_P1;HPM_P2
2023/09/06 00:00:52;;;;;;;7.05;4.13;;;20.50;99.90;;;;;;6134973;23;20358;-89
2023/09/06 00:03:18;;;;;;;8.68;4.18;;;20.50;99.90;;;;;;6185885;23;20024;-89
2023/09/06 00:05:44;;;;;;;8.63;4.20;;;20.50;99.90;;;;;;6185651;23;20013;-89
2023/09/06 00:08:12;;;;;;;7.97;3.78;;;20.50;99.90;;;;;;6159107;23;20016;-89
2023/09/06 00:10:39;;;;;;;7.45;3.72;;;20.40;99.90;;;;;;6185791;23;20017;-89
2023/09/06 00:13:10;;;;;;;8.43;3.80;;;20.40;99.90;;;;;;6159069;23;20029;-89
2023/09/06 00:15:36;;;;;;;8.77;4.10;;;20.40;99.90;;;;;;6185762;23;20017;-89
2023/09/06 00:18:03;;;;;;;7.68;3.58;;;20.30;99.90;;;;;;6185671;23;20092;-89
2023/09/06 00:20:29;;;;;;;8.57;3.60;;;20.20;99.90;;;;;;6185235;23;20084;-89
2023/09/06 00:22:57;;;;;;;7.57;3.80;;;20.20;99.90;;;;;;6185691;23;20013;-89
2023/09/06 00:25:24;;;;;;;8.73;3.42;;;20.20;99.90;;;;;;6185431;23;20012;-89
2023/09/06 00:27:50;;;;;;;7.63;3.47;;;20.20;99.90;;;;;;6185546;23;20059;-89
2023/09/06 00:30:19;;;;;;;7.55;3.60;;;20.30;99.90;;;;;;6159103;23;20084;-89
2023/09/06 00:32:45;;;;;;;7.63;3.88;;;20.30;99.90;;;;;;6159166;23;20015;-88
2023/09/06 00:35:12;;;;;;;8.18;4.10;;;20.30;99.90;;;;;;6159236;23;20087;-88
2023/09/06 00:37:39;;;;;;;10.65;4.05;;;20.30;99.90;;;;;;6185390;23;20021;-88
2023/09/06 00:40:14;;;;;;;8.05;3.75;;;20.30;99.90;;;;;;6185118;23;20072;-89
2023/09/06 00:42:40;;;;;;;7.05;4.15;;;20.20;99.90;;;;;;6185902;23;20088;-89
2023/09/06 00:45:06;;;;;;;7.97;4.13;;;20.20;99.90;;;;;;6185476;23;20048;-88
2023/09/06 00:47:31;;;;;;;6.88;4.05;;;20.20;99.90;;;;;;6158907;23;20403;-88
2023/09/06 00:49:57;;;;;;;8.60;4.47;;;20.20;99.90;;;;;;6185340;23;20507;-89
2023/09/06 00:52:23;;;;;;;7.45;3.92;;;20.20;99.90;;;;;;6185846;23;20355;-89
2023/09/06 00:54:49;;;;;;;8.73;4.07;;;20.20;99.90;;;;;;6159175;23;20020;-89
2023/09/06 00:57:15;;;;;;;7.93;4.53;;;20.20;99.90;;;;;;6185555;23;20020;-89
2023/09/06 00:59:43;;;;;;;8.60;4.20;;;20.10;99.90;;;;;;6185216;23;20079;-89
2023/09/06 01:02:09;;;;;;;7.80;4.38;;;20.10;99.90;;;;;;6185164;23;20009;-89
2023/09/06 01:04:34;;;;;;;7.88;3.88;;;20.10;99.90;;;;;;6186004;23;20047;-89
2023/09/06 01:07:02;;;;;;;7.50;3.95;;;20.10;99.90;;;;;;6185537;23;20091;-89
2023/09/06 01:09:29;;;;;;;8.02;4.60;;;20.10;99.90;;;;;;6185098;23;20024;-89
2023/09/06 01:11:55;;;;;;;10.55;4.55;;;20.00;99.90;;;;;;6158397;23;20017;-89
2023/09/06 01:14:20;;;;;;;7.30;4.03;;;20.00;99.90;;;;;;6185400;23;20016;-89
2023/09/06 01:16:48;;;;;;;8.55;3.80;;;19.90;99.90;;;;;;6185488;23;20009;-89
2023/09/06 01:19:15;;;;;;;7.18;3.42;;;19.80;99.90;;;;;;6184657;23;20032;-90
2023/09/06 01:22:06;;;;;;;9.82;4.20;;;19.70;99.90;;;;;;6185157;23;20017;-90
2023/09/06 01:24:32;;;;;;;8.07;3.65;;;19.80;99.90;;;;;;6185305;23;20135;-89
2023/09/06 01:26:58;;;;;;;8.98;4.03;;;19.70;99.90;;;;;;6185051;23;20501;-89
2023/09/06 01:29:24;;;;;;;8.80;4.05;;;19.70;99.90;;;;;;6185122;23;20036;-89
2023/09/06 01:31:49;;;;;;;9.20;4.55;;;19.60;99.90;;;;;;6184749;23;20573;-90
2023/09/06 01:34:15;;;;;;;7.28;4.18;;;19.60;99.90;;;;;;6185367;23;20312;-90
2023/09/06 01:36:41;;;;;;;9.15;4.28;;;19.60;99.90;;;;;;6134186;23;20080;-89
2023/09/06 01:39:08;;;;;;;8.20;4.20;;;19.60;99.90;;;;;;6184246;23;20396;-88
2023/09/06 01:41:33;;;;;;;9.15;4.63;;;19.60;99.90;;;;;;6185388;23;20360;-90
2023/09/06 01:44:00;;;;;;;8.80;4.82;;;19.60;99.90;;;;;;6185414;23;20439;-89
2023/09/06 01:46:25;;;;;;;8.55;4.38;;;19.60;99.90;;;;;;6185170;23;20036;-89
2023/09/06 01:48:51;;;;;;;8.75;4.68;;;19.60;99.90;;;;;;6184770;23;20398;-89
2023/09/06 01:51:16;;;;;;;8.10;4.38;;;19.60;99.90;;;;;;6184942;23;20013;-89
2023/09/06 01:53:42;;;;;;;9.32;4.40;;;19.60;99.90;;;;;;6184919;23;20047;-88
2023/09/06 01:56:08;;;;;;;8.10;4.35;;;19.60;99.90;;;;;;6185106;23;20074;-89
2023/09/06 01:58:37;;;;;;;9.20;4.80;;;19.60;99.90;;;;;;6158210;23;20013;-88
2023/09/06 02:01:04;;;;;;;10.02;4.80;;;19.60;99.90;;;;;;6185414;23;20040;-88
2023/09/06 02:03:33;;;;;;;8.40;4.85;;;19.60;99.90;;;;;;6184994;23;20012;-89
2023/09/06 02:06:03;;;;;;;9.23;4.82;;;19.60;99.90;;;;;;6184484;23;20020;-89
2023/09/06 02:08:29;;;;;;;9.70;5.05;;;19.60;99.90;;;;;;6184131;23;20088;-89
2023/09/06 02:10:54;;;;;;;10.88;4.80;;;19.50;99.90;;;;;;6184897;23;20017;-88
2023/09/06 02:13:20;;;;;;;8.60;4.40;;;19.50;99.90;;;;;;6133897;23;20028;-89
2023/09/06 02:15:45;;;;;;;9.13;4.45;;;19.50;99.90;;;;;;6184548;23;20009;-89
2023/09/06 02:18:15;;;;;;;10.57;4.53;;;19.50;99.90;;;;;;6184127;23;20094;-89
2023/09/06 02:20:41;;;;;;;9.00;4.45;;;19.50;99.90;;;;;;6133411;23;20013;-88
2023/09/06 02:23:07;;;;;;;7.07;4.22;;;19.50;99.90;;;;;;6184411;23;20016;-88
2023/09/06 02:25:33;;;;;;;10.27;4.65;;;19.50;99.90;;;;;;6184549;23;20013;-88
2023/09/06 02:28:06;;;;;;;9.02;4.18;;;19.50;99.90;;;;;;6184737;23;20005;-88
2023/09/06 02:30:38;;;;;;;10.50;4.63;;;19.40;99.90;;;;;;6184744;23;20016;-88
2023/09/06 02:33:04;;;;;;;8.20;4.50;;;19.40;99.90;;;;;;6184967;23;20017;-89
2023/09/06 02:35:30;;;;;;;10.18;5.07;;;19.40;99.90;;;;;;6184000;23;20017;-89
2023/09/06 02:37:56;;;;;;;8.43;4.60;;;19.40;99.90;;;;;;6184247;23;20095;-88
2023/09/06 02:40:22;;;;;;;8.45;4.60;;;19.30;99.90;;;;;;6184051;23;20013;-88
2023/09/06 02:42:51;;;;;;;8.30;4.53;;;19.30;99.90;;;;;;6184413;23;20459;-88
2023/09/06 02:45:17;;;;;;;8.73;4.70;;;19.30;99.90;;;;;;6184433;23;20013;-88
2023/09/06 02:47:50;;;;;;;9.68;5.15;;;19.30;99.90;;;;;;6133517;23;20083;-88
2023/09/06 02:50:17;;;;;;;8.27;4.88;;;19.30;99.90;;;;;;6184366;23;20040;-88
2023/09/06 02:52:47;;;;;;;9.68;5.00;;;19.30;99.90;;;;;;6184439;23;20039;-89
2023/09/06 02:55:13;;;;;;;10.90;4.97;;;19.20;99.90;;;;;;6184787;23;20005;-89
2023/09/06 02:57:43;;;;;;;9.32;4.78;;;19.10;99.90;;;;;;6158195;23;20068;-88
2023/09/06 03:00:25;;;;;;;9.15;4.90;;;19.10;99.90;;;;;;6184320;23;20009;-88
2023/09/06 03:02:59;;;;;;;9.07;5.35;;;19.20;99.90;;;;;;6184631;23;20013;-88
2023/09/06 03:05:26;;;;;;;10.20;5.38;;;19.10;99.90;;;;;;6184520;23;20016;-89
2023/09/06 03:07:53;;;;;;;10.48;5.32;;;19.00;99.90;;;;;;6183359;23;20451;-89
2023/09/06 03:10:20;;;;;;;8.65;4.85;;;19.00;99.90;;;;;;6184126;23;20010;-88
2023/09/06 03:12:47;;;;;;;9.45;3.95;;;19.00;99.90;;;;;;6156915;23;20017;-88
2023/09/06 03:15:13;;;;;;;8.95;5.05;;;18.90;99.90;;;;;;6184035;23;20040;-88
2023/09/06 03:17:39;;;;;;;8.38;5.20;;;18.90;99.90;;;;;;6184107;23;20017;-89
2023/09/06 03:20:19;;;;;;;8.30;5.07;;;18.90;99.90;;;;;;6133182;23;20039;-89
2023/09/06 03:22:51;;;;;;;9.10;5.45;;;18.90;99.90;;;;;;6184369;23;20041;-89
2023/09/06 03:25:17;;;;;;;9.35;5.68;;;18.90;99.90;;;;;;6184181;23;20009;-88
2023/09/06 03:27:43;;;;;;;9.00;5.20;;;18.90;99.90;;;;;;6184687;23;20016;-89
2023/09/06 03:30:12;;;;;;;8.93;3.72;;;18.80;99.90;;;;;;6183566;23;20013;-89
2023/09/06 03:32:39;;;;;;;8.82;5.18;;;18.70;99.90;;;;;;6184110;23;20013;-89
2023/09/06 03:35:08;;;;;;;11.27;5.45;;;18.70;99.90;;;;;;6184206;23;20064;-88
2023/09/06 03:37:33;;;;;;;9.45;5.13;;;18.70;99.90;;;;;;6183919;23;20010;-89
2023/09/06 03:40:00;;;;;;;8.13;5.10;;;18.70;99.90;;;;;;6183774;23;20009;-88
2023/09/06 03:42:25;;;;;;;9.00;5.43;;;18.70;99.90;;;;;;6183594;23;20520;-88
2023/09/06 03:44:52;;;;;;;9.18;4.90;;;18.80;99.90;;;;;;6184013;23;20009;-89
2023/09/06 03:47:19;;;;;;;8.10;4.43;;;18.70;99.90;;;;;;6184050;23;20473;-89
2023/09/06 03:49:45;;;;;;;8.93;4.90;;;18.60;99.90;;;;;;6185142;23;20025;-89
2023/09/06 03:52:11;;;;;;;8.80;5.20;;;18.60;99.90;;;;;;6186094;23;20009;-89
2023/09/06 03:54:37;;;;;;;9.65;4.45;;;18.60;99.90;;;;;;6159900;23;20017;-89
2023/09/06 03:57:04;;;;;;;8.77;5.25;;;18.50;99.90;;;;;;6186104;23;20013;-89
2023/09/06 03:59:35;;;;;;;9.70;5.50;;;18.50;99.90;;;;;;6185268;23;20089;-88
2023/09/06 04:02:00;;;;;;;11.43;6.00;;;18.50;99.90;;;;;;6158773;23;20017;-88
2023/09/06 04:04:28;;;;;;;8.70;4.97;;;18.50;99.90;;;;;;6186068;23;20036;-85
2023/09/06 04:06:54;;;;;;;8.65;5.13;;;18.50;99.90;;;;;;6185430;23;20017;-88
2023/09/06 04:09:27;;;;;;;10.25;5.15;;;18.40;99.90;;;;;;6185617;23;20781;-87
2023/09/06 04:11:53;;;;;;;9.45;5.20;;;18.40;99.90;;;;;;6158867;23;20017;-88
2023/09/06 04:14:19;;;;;;;6.70;3.60;;;18.30;99.90;;;;;;6185598;23;20020;-88
2023/09/06 04:16:45;;;;;;;7.15;3.97;;;18.10;99.90;;;;;;6184603;23;20021;-88
2023/09/06 04:19:11;;;;;;;8.75;4.45;;;18.00;99.90;;;;;;6184149;23;20066;-88
2023/09/06 04:21:37;;;;;;;10.25;5.15;;;18.00;99.90;;;;;;6185131;23;20024;-88
2023/09/06 04:24:04;;;;;;;9.07;6.00;;;18.00;99.90;;;;;;6185836;23;20513;-88
2023/09/06 04:26:30;;;;;;;10.00;5.90;;;18.00;99.90;;;;;;6134646;23;20009;-88
2023/09/06 04:28:55;;;;;;;10.35;5.53;;;18.00;99.90;;;;;;6185723;23;20017;-88
2023/09/06 04:31:21;;;;;;;9.13;5.30;;;18.10;99.90;;;;;;6185751;23;20017;-88
2023/09/06 04:33:47;;;;;;;9.25;5.82;;;18.00;99.90;;;;;;6185524;23;20458;-88
2023/09/06 04:36:12;;;;;;;8.20;5.45;;;18.00;99.90;;;;;;6158990;23;20017;-88
2023/09/06 04:38:38;;;;;;;9.75;4.38;;;18.00;99.90;;;;;;6184170;23;20013;-88
2023/09/06 04:41:03;;;;;;;15.35;6.40;;;18.00;99.90;;;;;;6184480;23;20024;-88
2023/09/06 04:43:29;;;;;;;9.73;5.72;;;17.90;99.90;;;;;;6184837;23;20009;-88
2023/09/06 04:45:54;;;;;;;11.43;5.90;;;18.00;99.90;;;;;;6183844;23;20020;-88
2023/09/06 04:48:23;;;;;;;8.77;5.35;;;18.00;99.90;;;;;;6158842;23;20471;-88
2023/09/06 04:50:50;;;;;;;9.07;6.00;;;18.00;99.90;;;;;;6185427;23;20017;-88
2023/09/06 04:53:18;;;;;;;9.32;5.50;;;18.00;99.90;;;;;;6185380;23;20062;-88
2023/09/06 04:55:44;;;;;;;9.02;5.75;;;18.00;99.90;;;;;;6185539;23;20347;-88
2023/09/06 04:58:11;;;;;;;9.57;6.25;;;18.00;99.90;;;;;;6185020;23;20009;-88
2023/09/06 05:00:41;;;;;;;10.48;6.07;;;18.00;99.90;;;;;;6184648;23;20084;-88
2023/09/06 05:03:13;;;;;;;8.77;4.13;;;18.00;99.90;;;;;;6185707;23;20009;-88
2023/09/06 05:05:41;;;;;;;9.23;6.10;;;17.90;99.90;;;;;;6185573;23;20036;-88
2023/09/06 05:08:07;;;;;;;11.43;6.72;;;17.90;99.90;;;;;;6184819;23;20009;-88
2023/09/06 05:10:37;;;;;;;10.45;5.35;;;17.90;99.90;;;;;;6184024;23;20021;-88
2023/09/06 05:13:07;;;;;;;9.35;5.45;;;17.90;99.90;;;;;;6158187;23;20017;-88
2023/09/06 05:15:35;;;;;;;10.05;6.78;;;17.90;99.90;;;;;;6184392;23;20016;-88
2023/09/06 05:18:00;;;;;;;9.10;5.63;;;17.90;99.90;;;;;;6158209;23;20016;-89
2023/09/06 05:20:32;;;;;;;10.10;6.85;;;17.90;99.90;;;;;;6184704;23;20009;-88
2023/09/06 05:23:07;;;;;;;9.48;5.97;;;17.80;99.90;;;;;;6185601;23;20028;-88
2023/09/06 05:25:34;;;;;;;11.70;5.18;;;17.80;99.90;;;;;;6185374;23;20009;-88
2023/09/06 05:28:05;;;;;;;8.63;3.95;;;17.70;99.90;;;;;;6184779;23;20005;-88
2023/09/06 05:30:34;;;;;;;9.88;6.40;;;17.70;99.90;;;;;;6184354;23;20454;-89
2023/09/06 05:32:59;;;;;;;9.73;5.95;;;17.70;99.90;;;;;;6185008;23;20009;-88
2023/09/06 05:35:26;;;;;;;9.60;4.72;;;17.80;99.90;;;;;;6184660;23;20422;-88
2023/09/06 05:37:52;;;;;;;10.48;6.68;;;17.80;99.90;;;;;;6158294;23;20089;-89
2023/09/06 05:40:26;;;;;;;9.70;6.85;;;17.80;99.90;;;;;;6184916;23;20013;-88
2023/09/06 05:42:52;;;;;;;11.90;7.00;;;17.90;99.90;;;;;;6185443;23;20067;-88
2023/09/06 05:45:21;;;;;;;10.20;6.53;;;17.90;99.90;;;;;;6184990;23;20464;-89
2023/09/06 05:47:48;;;;;;;9.65;6.43;;;17.90;99.90;;;;;;6184679;23;20112;-89
2023/09/06 05:50:13;;;;;;;11.38;6.45;;;18.00;99.90;;;;;;6158133;23;20013;-89
2023/09/06 05:52:39;;;;;;;9.85;6.97;;;18.00;99.90;;;;;;6185105;23;20016;-88
2023/09/06 05:55:06;;;;;;;9.88;7.05;;;18.00;99.90;;;;;;6184958;23;20060;-89
2023/09/06 05:57:32;;;;;;;9.50;6.82;;;18.00;99.90;;;;;;6185118;23;20005;-89
2023/09/06 05:59:58;;;;;;;11.90;7.90;;;18.10;99.90;;;;;;6184449;23;20483;-89
2023/09/06 06:02:24;;;;;;;9.82;5.15;;;18.10;99.90;;;;;;6158426;23;20021;-88
2023/09/06 06:04:50;;;;;;;12.80;7.30;;;18.10;99.90;;;;;;6133827;23;20013;-89
2023/09/06 06:07:16;;;;;;;10.05;6.53;;;18.10;99.90;;;;;;6184004;23;20415;-89
2023/09/06 06:09:43;;;;;;;10.15;6.07;;;18.10;99.90;;;;;;6184375;23;20085;-89
2023/09/06 06:12:10;;;;;;;11.38;7.50;;;18.10;99.90;;;;;;6184492;23;20051;-88
2023/09/06 06:14:40;;;;;;;10.90;8.20;;;18.20;99.90;;;;;;6185022;23;20079;-89
2023/09/06 06:17:06;;;;;;;14.50;10.48;;;18.30;99.90;;;;;;6158496;23;20015;-88
2023/09/06 06:19:33;;;;;;;11.35;7.82;;;18.30;99.90;;;;;;6184618;23;20016;-89
2023/09/06 06:22:01;;;;;;;10.93;6.90;;;18.40;99.90;;;;;;6184851;23;20071;-88
2023/09/06 06:24:27;;;;;;;8.10;4.70;;;18.50;99.90;;;;;;6184719;23;20096;-88
2023/09/06 06:26:52;;;;;;;9.85;6.53;;;18.50;99.90;;;;;;6133693;23;20044;-88
2023/09/06 06:29:18;;;;;;;10.77;6.38;;;18.50;99.90;;;;;;6157820;23;20021;-88
2023/09/06 06:31:44;;;;;;;9.52;5.82;;;18.60;99.90;;;;;;6184432;23;20020;-89
2023/09/06 06:34:10;;;;;;;9.73;5.13;;;18.60;99.90;;;;;;6184623;23;20009;-89
2023/09/06 06:36:36;;;;;;;10.18;6.10;;;18.70;99.90;;;;;;6184498;23;20028;-89
2023/09/06 06:39:02;;;;;;;9.43;4.30;;;18.70;99.90;;;;;;6184167;23;20013;-89
2023/09/06 06:41:28;;;;;;;10.07;5.57;;;18.70;99.90;;;;;;6184060;23;20328;-89
2023/09/06 06:43:53;;;;;;;11.63;6.32;;;18.80;99.90;;;;;;6133428;23;20009;-89
2023/09/06 06:46:29;;;;;;;9.30;5.90;;;18.90;99.90;;;;;;6158187;23;20013;-90
2023/09/06 06:48:56;;;;;;;10.38;5.43;;;19.00;99.90;;;;;;6184182;23;20041;-90
2023/09/06 06:51:25;;;;;;;9.45;5.53;;;19.00;99.90;;;;;;6184849;23;20009;-89
2023/09/06 06:53:51;;;;;;;8.00;5.07;;;19.10;99.90;;;;;;6184610;23;20009;-89
2023/09/06 06:56:21;;;;;;;11.48;5.80;;;19.10;99.90;;;;;;6184404;23;20009;-89
2023/09/06 06:58:48;;;;;;;12.10;5.63;;;19.30;99.90;;;;;;6184031;23;20432;-90
2023/09/06 07:01:14;;;;;;;9.82;5.20;;;19.30;99.90;;;;;;6184332;23;20016;-90
2023/09/06 07:03:40;;;;;;;8.20;5.65;;;19.40;99.90;;;;;;6184234;23;20009;-90
2023/09/06 07:06:09;;;;;;;10.48;5.35;;;19.50;99.90;;;;;;6184439;23;20481;-90
2023/09/06 07:08:38;;;;;;;10.05;5.10;;;19.50;99.90;;;;;;6157686;23;20441;-89
2023/09/06 07:11:04;;;;;;;9.15;4.90;;;19.60;99.90;;;;;;6157773;23;20412;-89
2023/09/06 07:13:30;;;;;;;9.82;5.20;;;19.70;99.90;;;;;;6184485;23;20438;-90
2023/09/06 07:15:56;;;;;;;9.82;5.13;;;19.80;99.90;;;;;;6157563;23;20013;-89
2023/09/06 07:18:22;;;;;;;11.00;4.80;;;19.90;99.90;;;;;;6184408;23;20013;-90
2023/09/06 07:20:47;;;;;;;8.85;4.55;;;19.90;99.90;;;;;;6184427;23;20474;-90
2023/09/06 07:23:13;;;;;;;8.18;4.78;;;20.00;99.90;;;;;;6185186;23;20088;-89
2023/09/06 07:25:43;;;;;;;7.15;4.07;;;20.10;99.90;;;;;;6186510;23;20020;-89
2023/09/06 07:28:09;;;;;;;7.10;3.92;;;20.20;99.90;;;;;;6186413;23;20009;-88
2023/09/06 07:30:35;;;;;;;11.00;3.97;;;20.30;99.90;;;;;;6186238;23;20051;-89
2023/09/06 07:33:00;;;;;;;8.95;3.78;;;20.40;99.90;;;;;;6186534;23;20480;-89
2023/09/06 07:35:27;;;;;;;8.25;3.80;;;20.50;99.90;;;;;;6186201;23;20020;-89
2023/09/06 07:37:53;;;;;;;8.38;3.92;;;20.60;99.90;;;;;;6185857;23;20055;-89
2023/09/06 07:40:19;;;;;;;9.23;4.30;;;20.60;99.90;;;;;;6185842;23;20017;-89
2023/09/06 07:42:45;;;;;;;11.05;3.95;;;20.70;99.90;;;;;;6186106;23;20056;-89
2023/09/06 07:45:11;;;;;;;7.05;3.80;;;20.80;99.90;;;;;;6186305;23;20068;-89
2023/09/06 07:47:37;;;;;;;9.55;4.10;;;20.90;99.90;;;;;;6159581;23;20009;-89
2023/09/06 07:50:05;;;;;;;8.70;4.10;;;20.90;99.90;;;;;;6186292;23;20079;-89
2023/09/06 07:52:31;;;;;;;8.13;3.90;;;21.00;99.90;;;;;;6185946;23;20009;-89
2023/09/06 07:54:58;;;;;;;7.95;3.80;;;21.10;99.90;;;;;;6186651;23;20450;-89
2023/09/06 07:57:24;;;;;;;10.77;4.07;;;21.20;99.90;;;;;;6186450;23;20013;-89
2023/09/06 07:59:49;;;;;;;10.15;3.88;;;21.30;99.90;;;;;;6185557;23;20021;-90
2023/09/06 08:02:15;;;;;;;8.05;3.83;;;21.30;99.90;;;;;;6186236;23;20016;-89
2023/09/06 08:04:41;;;;;;;9.23;4.15;;;21.40;99.90;;;;;;6186024;23;20545;-89
2023/09/06 08:07:07;;;;;;;7.47;3.80;;;21.50;99.90;;;;;;6185721;23;20052;-89
2023/09/06 08:09:33;;;;;;;8.70;3.70;;;21.60;99.90;;;;;;6134763;23;20084;-89
2023/09/06 08:11:58;;;;;;;8.25;3.47;;;21.70;99.90;;;;;;6185549;23;20044;-89
2023/09/06 08:14:24;;;;;;;7.47;3.45;;;21.80;99.90;;;;;;6186176;23;20467;-89
2023/09/06 08:16:49;;;;;;;8.93;3.70;;;21.80;99.90;;;;;;6185273;23;20013;-89
2023/09/06 08:19:15;;;;;;;9.25;4.00;;;21.90;99.90;;;;;;6159047;23;20110;-89
2023/09/06 08:21:42;;;;;;;8.10;3.70;;;22.00;99.90;;;;;;6185776;23;20020;-89
2023/09/06 08:24:07;;;;;;;8.68;3.90;;;22.10;99.90;;;;;;6185921;23;20005;-89
2023/09/06 08:26:33;;;;;;;7.10;3.33;;;22.20;99.90;;;;;;6159224;23;20017;-89
2023/09/06 08:28:59;;;;;;;6.60;3.03;;;22.20;99.90;;;;;;6185359;23;20101;-89
2023/09/06 08:31:24;;;;;;;9.20;3.45;;;22.30;99.90;;;;;;6185411;23;20501;-89
2023/09/06 08:33:50;;;;;;;6.40;3.28;;;22.40;99.90;;;;;;6185766;23;20017;-89
2023/09/06 08:36:15;;;;;;;8.27;3.22;;;22.50;99.90;;;;;;6159373;23;20340;-89
2023/09/06 08:38:42;;;;;;;7.18;3.42;;;22.60;99.90;;;;;;6185281;23;20063;-89
2023/09/06 08:41:08;;;;;;;6.78;2.90;;;22.70;99.90;;;;;;6185869;23;20013;-89
2023/09/06 08:43:36;;;;;;;7.30;3.10;;;22.80;99.90;;;;;;6185539;23;20017;-89
2023/09/06 08:46:11;;;;;;;8.35;3.25;;;22.90;99.90;;;;;;6185382;23;20051;-89
2023/09/06 08:48:37;;;;;;;7.40;2.80;;;23.00;99.90;;;;;;6185104;23;20013;-89
2023/09/06 08:51:05;;;;;;;10.95;3.10;;;23.10;99.90;;;;;;6185131;23;20024;-89
2023/09/06 08:53:34;;;;;;;8.93;3.28;;;23.10;99.90;;;;;;6184398;23;20013;-90
2023/09/06 08:56:03;;;;;;;7.60;2.90;;;23.30;99.90;;;;;;6184832;23;20020;-90
2023/09/06 08:58:30;;;;;;;7.90;3.00;;;23.40;99.90;;;;;;6184360;23;20064;-90
2023/09/06 09:00:56;;;;;;;7.78;2.80;;;23.50;99.90;;;;;;6185010;23;20023;-89
2023/09/06 09:03:22;;;;;;;6.00;2.70;;;23.60;99.90;;;;;;6184664;23;20017;-90
2023/09/06 09:05:47;;;;;;;8.32;3.05;;;23.70;99.90;;;;;;6185045;23;20067;-90
2023/09/06 09:08:13;;;;;;;6.85;2.92;;;23.80;99.90;;;;;;6185340;23;20465;-90
2023/09/06 09:10:39;;;;;;;8.82;2.92;;;23.80;99.90;;;;;;6184821;23;20020;-90
2023/09/06 09:13:11;;;;;;;6.72;2.55;;;23.90;99.90;;;;;;6185245;23;20021;-90
2023/09/06 09:15:37;;;;;;;8.43;3.00;;;24.00;99.90;;;;;;6185548;23;20017;-90
2023/09/06 09:18:10;;;;;;;6.00;2.63;;;24.10;99.90;;;;;;6159280;23;20457;-90
2023/09/06 09:20:40;;;;;;;7.07;2.70;;;24.20;99.90;;;;;;6184899;23;20075;-90
2023/09/06 09:23:16;;;;;;;6.53;2.90;;;24.30;99.90;;;;;;6185242;23;20063;-90
2023/09/06 09:25:49;;;;;;;8.52;3.17;;;24.40;99.90;;;;;;6185419;23;20012;-90
2023/09/06 09:28:15;;;;;;;8.50;3.03;;;24.50;99.90;;;;;;6185023;23;20408;-90
2023/09/06 09:30:41;;;;;;;8.55;3.40;;;24.50;99.90;;;;;;6184867;23;20071;-90
2023/09/06 09:33:06;;;;;;;8.05;3.10;;;24.60;97.00;;;;;;6185404;23;20442;-90
2023/09/06 09:35:32;;;;;;;6.43;2.85;;;24.70;96.50;;;;;;6158587;23;20494;-90
2023/09/06 09:37:59;;;;;;;7.35;3.10;;;24.80;97.20;;;;;;6185062;23;20013;-90
2023/09/06 09:40:34;;;;;;;8.20;2.83;;;24.80;93.30;;;;;;6133167;23;20009;-90
2023/09/06 09:43:02;;;;;;;6.70;2.88;;;24.90;92.20;;;;;;6185179;23;20009;-90
2023/09/06 09:45:28;;;;;;;9.27;3.22;;;25.00;92.50;;;;;;6184756;23;20020;-90
2023/09/06 09:47:55;;;;;;;6.80;2.80;;;25.00;93.20;;;;;;6158544;23;20017;-90
2023/09/06 09:50:33;;;;;;;5.75;2.80;;;25.10;92.70;;;;;;6184885;23;20072;-89
2023/09/06 09:53:02;;;;;;;8.30;2.97;;;25.20;93.10;;;;;;6183503;23;20018;-90
2023/09/06 09:55:32;;;;;;;7.97;3.00;;;25.30;92.30;;;;;;6155155;23;20013;-91
2023/09/06 09:58:05;;;;;;;7.32;2.90;;;25.30;91.20;;;;;;6181660;23;20366;-91
2023/09/06 10:00:32;;;;;;;7.32;2.70;;;25.40;92.80;;;;;;6154709;23;20572;-91
2023/09/06 10:02:58;;;;;;;6.13;2.72;;;25.50;91.00;;;;;;6183884;23;20013;-90
2023/09/06 10:05:29;;;;;;;7.30;2.85;;;25.60;90.60;;;;;;6184733;23;20013;-90
2023/09/06 10:07:56;;;;;;;8.05;3.10;;;25.70;90.50;;;;;;6184642;23;20067;-91
2023/09/06 10:10:27;;;;;;;7.10;2.67;;;25.70;91.50;;;;;;6184433;23;20028;-90
2023/09/06 10:12:53;;;;;;;8.55;3.00;;;25.80;90.80;;;;;;6184655;23;20017;-90
2023/09/06 10:15:23;;;;;;;9.13;2.97;;;25.90;90.40;;;;;;6134106;23;20027;-90
2023/09/06 10:17:50;;;;;;;7.85;2.78;;;25.90;89.20;;;;;;6133816;23;20171;-90
2023/09/06 10:20:22;;;;;;;6.32;2.80;;;26.10;88.60;;;;;;6184182;23;20009;-90
2023/09/06 10:22:52;;;;;;;7.85;2.80;;;26.10;87.10;;;;;;6184824;23;20013;-90
2023/09/06 10:25:18;;;;;;;6.18;2.72;;;26.20;85.60;;;;;;6184666;23;20013;-90
2023/09/06 10:27:45;;;;;;;6.97;2.70;;;26.30;85.10;;;;;;6133526;23;20017;-90
2023/09/06 10:30:17;;;;;;;6.88;2.78;;;26.40;87.80;;;;;;6184404;23;20442;-91
2023/09/06 10:32:44;;;;;;;8.60;2.83;;;26.40;85.70;;;;;;6184775;23;20048;-90
2023/09/06 10:35:27;;;;;;;6.63;2.30;;;26.50;87.70;;;;;;6184568;23;20553;-91
2023/09/06 10:38:15;;;;;;;7.15;3.00;;;26.60;87.00;;;;;;6184547;23;20059;-91
2023/09/06 10:40:49;;;;;;;6.13;2.65;;;26.70;87.50;;;;;;6184075;23;20640;-90
2023/09/06 10:43:16;;;;;;;6.85;2.70;;;26.80;90.50;;;;;;6133435;23;20036;-90
2023/09/06 10:45:54;;;;;;;6.10;2.60;;;26.90;90.60;;;;;;6158151;23;20009;-91
2023/09/06 10:48:20;;;;;;;9.05;3.13;;;27.00;86.00;;;;;;6184113;23;20009;-91
2023/09/06 10:51:06;;;;;;;7.30;2.83;;;27.10;85.90;;;;;;6184325;23;20017;-91
2023/09/06 10:53:33;;;;;;;7.25;3.20;;;27.20;87.90;;;;;;6184681;23;20020;-91
2023/09/06 10:56:00;;;;;;;7.75;2.63;;;27.30;88.10;;;;;;6185038;23;20453;-90
2023/09/06 10:58:29;;;;;;;6.47;2.70;;;27.40;81.10;;;;;;6185204;23;20211;-91
2023/09/06 11:01:17;;;;;;;5.28;2.22;;;27.40;81.60;;;;;;6186717;23;20006;-90
2023/09/06 11:04:11;;;;;;;7.32;2.30;;;27.50;79.60;;;;;;6186624;23;20017;-90
2023/09/06 11:06:53;;;;;;;6.00;2.40;;;27.60;79.70;;;;;;6186702;23;20008;-90
2023/09/06 11:09:18;;;;;;;6.60;2.45;;;27.60;76.00;;;;;;6186176;23;20017;-91
2023/09/06 11:11:51;;;;;;;5.72;2.35;;;27.70;77.50;;;;;;6186344;23;20017;-90
2023/09/06 11:14:16;;;;;;;5.63;2.28;;;27.80;78.40;;;;;;6159680;23;20402;-91
2023/09/06 11:16:51;;;;;;;6.57;2.42;;;27.90;75.20;;;;;;6186084;23;20013;-90
2023/09/06 11:19:27;;;;;;;5.93;2.30;;;28.00;75.60;;;;;;6185730;23;20019;-91
2023/09/06 11:22:06;;;;;;;5.68;2.42;;;28.10;76.20;;;;;;6185755;23;20517;-91
2023/09/06 11:24:36;;;;;;;6.18;2.40;;;28.20;74.60;;;;;;6186513;23;20009;-90
2023/09/06 11:27:33;;;;;;;7.15;2.90;;;28.20;75.40;;;;;;6159586;23;20025;-91
2023/09/06 11:30:10;;;;;;;6.97;2.70;;;28.30;74.40;;;;;;6186416;23;20031;-90
2023/09/06 11:32:36;;;;;;;6.90;2.55;;;28.40;76.40;;;;;;6186650;23;20013;-91
2023/09/06 11:35:05;;;;;;;9.25;2.70;;;28.50;74.00;;;;;;6186333;23;20320;-91
2023/09/06 11:37:32;;;;;;;6.00;2.42;;;28.60;73.40;;;;;;6186029;23;20462;-90
2023/09/06 11:39:59;;;;;;;6.22;2.35;;;28.70;73.70;;;;;;6185839;23;20016;-91
2023/09/06 11:42:30;;;;;;;7.03;2.70;;;28.70;72.90;;;;;;6186067;23;20358;-91
2023/09/06 11:44:58;;;;;;;7.25;2.50;;;28.90;74.00;;;;;;6186014;23;20019;-91
2023/09/06 11:47:27;;;;;;;7.90;2.53;;;28.90;74.00;;;;;;6186389;23;20008;-91
2023/09/06 11:49:55;;;;;;;6.63;2.60;;;29.00;73.50;;;;;;6186085;23;20020;-91
2023/09/06 11:52:23;;;;;;;7.30;2.40;;;29.20;73.90;;;;;;6185982;23;20013;-91
2023/09/06 11:54:52;;;;;;;8.45;2.60;;;29.30;71.80;;;;;;6186255;23;20047;-91
2023/09/06 11:57:30;;;;;;;6.07;2.35;;;29.30;73.80;;;;;;6185464;23;20009;-91
2023/09/06 12:00:00;;;;;;;6.45;2.50;;;29.40;70.90;;;;;;6185134;23;20053;-91
2023/09/06 12:02:34;;;;;;;5.85;2.38;;;29.50;70.60;;;;;;6134478;23;20013;-90
2023/09/06 12:05:01;;;;;;;10.05;2.67;;;29.70;69.00;;;;;;6185909;23;20079;-91
2023/09/06 12:07:31;;;;;;;6.95;2.28;;;29.80;68.70;;;;;;6185947;23;20009;-91
2023/09/06 12:09:58;;;;;;;9.43;2.80;;;29.80;68.90;;;;;;6185408;23;20024;-91
2023/09/06 12:12:25;;;;;;;7.30;2.33;;;30.00;68.50;;;;;;6185569;23;20017;-90
2023/09/06 12:14:51;;;;;;;6.68;2.13;;;30.10;68.70;;;;;;6185466;23;20013;-90
2023/09/06 12:17:20;;;;;;;7.70;2.33;;;30.20;68.90;;;;;;6185781;23;20015;-89
2023/09/06 12:19:46;;;;;;;6.18;2.28;;;30.30;69.00;;;;;;6185494;23;20013;-90
2023/09/06 12:22:17;;;;;;;6.20;2.45;;;30.50;68.60;;;;;;6185111;23;20184;-90
2023/09/06 12:24:46;;;;;;;5.57;2.00;;;30.70;69.60;;;;;;6184810;23;20084;-90
2023/09/06 12:27:15;;;;;;;6.55;2.63;;;30.80;69.30;;;;;;6158766;23;20013;-90
2023/09/06 12:29:42;;;;;;;6.40;2.10;;;30.90;67.50;;;;;;6184533;23;20398;-90
2023/09/06 12:32:08;;;;;;;7.78;2.33;;;31.00;65.20;;;;;;6185161;23;20023;-90
2023/09/06 12:34:33;;;;;;;6.57;2.00;;;31.10;64.40;;;;;;6185429;23;20013;-90
2023/09/06 12:36:59;;;;;;;5.68;2.10;;;31.20;63.00;;;;;;6185153;23;20389;-90
2023/09/06 12:39:25;;;;;;;7.20;2.25;;;31.30;63.40;;;;;;6185078;23;20076;-90
2023/09/06 12:41:51;;;;;;;6.85;2.17;;;31.40;64.40;;;;;;6185350;23;20087;-91
2023/09/06 12:44:16;;;;;;;7.57;2.10;;;31.60;63.20;;;;;;6158921;23;20040;-90
2023/09/06 12:46:42;;;;;;;5.40;2.10;;;31.70;63.10;;;;;;6185156;23;20013;-91
2023/09/06 12:49:07;;;;;;;6.03;2.15;;;31.90;62.80;;;;;;6185325;23;20009;-92